createdAt,value
2019-06-20T00:00:57.185Z,0.00
2019-06-20T00:01:57.132Z,4.00
2019-06-20T00:02:57.172Z,4.00
2019-06-20T00:03:57.352Z,0.00
2019-06-20T00:06:57.329Z,4.00
2019-06-20T00:07:57.667Z,4.00
2019-06-20T00:08:57.639Z,4.00
2019-06-20T00:09:57.363Z,4.00
2019-06-20T00:10:57.257Z,4.00
2019-06-20T00:11:57.284Z,4.00
2019-06-20T00:13:00.681Z,0.00
2019-06-20T00:13:57.320Z,0.00
2019-06-20T00:14:57.370Z,4.00
2019-06-20T00:15:57.320Z,0.00
2019-06-20T00:16:59.507Z,4.00
2019-06-20T00:17:57.358Z,0.00
2019-06-20T00:18:57.397Z,4.00
2019-06-20T00:19:57.412Z,4.00
2019-06-20T00:20:57.397Z,0.00
2019-06-20T00:21:57.549Z,0.00
2019-06-20T00:22:57.561Z,0.00
2019-06-20T00:23:57.583Z,0.00
2019-06-20T00:24:57.749Z,0.00
2019-06-20T00:25:57.552Z,0.00
2019-06-20T00:26:57.509Z,4.00
2019-06-20T00:27:57.522Z,4.00
2019-06-20T00:28:57.528Z,0.00
2019-06-20T00:29:57.818Z,0.00
2019-06-20T00:30:57.554Z,4.00
2019-06-20T00:31:57.657Z,4.00
2019-06-20T00:32:57.588Z,4.00
2019-06-20T00:33:57.598Z,0.00
2019-06-20T00:34:57.657Z,0.00
2019-06-20T00:36:58.211Z,0.00
2019-06-20T00:38:57.959Z,0.00
2019-06-20T00:39:58.184Z,4.00
2019-06-20T00:40:57.785Z,0.00
2019-06-20T00:41:57.725Z,0.00
2019-06-20T00:42:57.771Z,0.00
2019-06-20T00:43:57.876Z,0.00
2019-06-20T00:44:57.775Z,4.00
2019-06-20T00:45:57.900Z,0.00
2019-06-20T00:46:57.844Z,0.00
2019-06-20T00:47:57.877Z,4.00
2019-06-20T00:48:57.842Z,4.00
2019-06-20T00:49:57.993Z,0.00
2019-06-20T00:50:57.870Z,4.00
2019-06-20T00:51:58.015Z,4.00
2019-06-20T00:52:57.947Z,4.00
2019-06-20T00:53:57.919Z,4.00
2019-06-20T00:54:57.932Z,4.00
2019-06-20T00:55:57.945Z,4.00
2019-06-20T00:56:58.023Z,4.00
2019-06-20T00:57:57.978Z,4.00
2019-06-20T00:58:57.988Z,4.00
2019-06-20T00:59:58.007Z,4.00
2019-06-20T01:00:58.021Z,0.00
2019-06-20T01:01:58.043Z,4.00
2019-06-20T01:02:58.059Z,4.00
2019-06-20T01:03:58.078Z,4.00
2019-06-20T01:04:58.088Z,4.00
2019-06-20T01:05:58.294Z,4.00
2019-06-20T01:06:58.155Z,4.00
2019-06-20T01:07:58.191Z,4.00
2019-06-20T01:08:58.378Z,4.00
2019-06-20T01:09:58.698Z,4.00
2019-06-20T01:11:58.350Z,4.00
2019-06-20T01:12:58.822Z,4.00
2019-06-20T01:13:58.328Z,4.00
2019-06-20T01:14:58.261Z,4.00
2019-06-20T01:15:58.293Z,4.00
2019-06-20T01:16:58.273Z,4.00
2019-06-20T01:17:58.286Z,0.00
2019-06-20T01:18:58.303Z,0.00
2019-06-20T01:20:58.347Z,4.00
2019-06-20T01:21:58.357Z,4.00
2019-06-20T01:22:58.365Z,4.00
2019-06-20T01:23:58.395Z,4.00
2019-06-20T01:24:58.402Z,4.00
2019-06-20T01:25:58.422Z,4.00
2019-06-20T01:26:58.431Z,4.00
2019-06-20T01:27:58.453Z,4.00
2019-06-20T01:28:58.496Z,4.00
2019-06-20T01:29:58.478Z,4.00
2019-06-20T01:30:58.501Z,4.00
2019-06-20T01:31:58.508Z,4.00
2019-06-20T01:32:58.523Z,4.00
2019-06-20T01:33:58.550Z,4.00
2019-06-20T01:34:58.615Z,4.00
2019-06-20T01:35:58.595Z,4.00
2019-06-20T01:36:58.611Z,4.00
2019-06-20T01:37:58.599Z,4.00
2019-06-20T01:38:58.612Z,4.00
2019-06-20T01:39:58.658Z,4.00
2019-06-20T01:40:58.764Z,4.00
2019-06-20T01:41:59.318Z,4.00
2019-06-20T01:44:58.890Z,4.00
2019-06-20T01:45:58.741Z,4.00
2019-06-20T01:46:58.744Z,4.00
2019-06-20T01:47:58.780Z,4.00
2019-06-20T01:48:58.797Z,4.00
2019-06-20T01:49:58.785Z,4.00
2019-06-20T01:50:58.809Z,4.00
2019-06-20T01:51:58.818Z,4.00
2019-06-20T01:52:58.854Z,4.00
2019-06-20T01:53:58.855Z,4.00
2019-06-20T01:54:58.869Z,4.00
2019-06-20T01:55:58.882Z,4.00
2019-06-20T01:56:58.895Z,4.00
2019-06-20T01:57:58.910Z,4.00
2019-06-20T01:58:58.970Z,4.00
2019-06-20T02:00:59.099Z,4.00
2019-06-20T02:01:58.995Z,4.00
2019-06-20T02:02:58.991Z,4.00
2019-06-20T02:03:59.044Z,4.00
2019-06-20T02:05:59.039Z,4.00
2019-06-20T02:06:59.052Z,4.00
2019-06-20T02:07:59.070Z,4.00
2019-06-20T02:08:59.135Z,4.00
2019-06-20T02:09:59.112Z,4.00
2019-06-20T02:10:59.249Z,4.00
2019-06-20T02:11:59.138Z,4.00
2019-06-20T02:12:59.145Z,4.00
2019-06-20T02:14:07.291Z,4.00
2019-06-20T02:14:59.252Z,4.00
2019-06-20T02:15:59.192Z,4.00
2019-06-20T02:16:59.249Z,4.00
2019-06-20T02:17:59.250Z,4.00
2019-06-20T02:18:59.495Z,4.00
2019-06-20T02:19:59.285Z,4.00
2019-06-20T02:20:59.384Z,4.00
2019-06-20T02:21:59.316Z,4.00
2019-06-20T02:22:59.310Z,4.00
2019-06-20T02:23:59.321Z,4.00
2019-06-20T02:24:59.338Z,4.00
2019-06-20T02:25:59.370Z,4.00
2019-06-20T02:26:59.365Z,4.00
2019-06-20T02:27:59.381Z,4.00
2019-06-20T02:28:59.653Z,4.00
2019-06-20T02:29:59.437Z,4.00
2019-06-20T02:30:59.439Z,4.00
2019-06-20T02:31:59.505Z,4.00
2019-06-20T02:32:59.676Z,4.00
2019-06-20T02:33:59.473Z,4.00
2019-06-20T02:35:59.503Z,4.00
2019-06-20T02:36:59.523Z,4.00
2019-06-20T02:37:59.570Z,4.00
2019-06-20T02:38:59.582Z,4.00
2019-06-20T02:39:59.569Z,4.00
2019-06-20T02:40:59.578Z,4.00
2019-06-20T02:41:59.666Z,8.00
2019-06-20T02:42:59.612Z,4.00
2019-06-20T02:43:59.635Z,4.00
2019-06-20T02:44:59.647Z,8.00
2019-06-20T02:45:59.703Z,8.00
2019-06-20T02:47:00.100Z,8.00
2019-06-20T02:48:00.370Z,8.00
2019-06-20T02:49:00.831Z,8.00
2019-06-20T02:50:00.425Z,8.00
2019-06-20T02:50:59.774Z,12.00
2019-06-20T02:51:59.802Z,8.00
2019-06-20T02:53:00.427Z,8.00
2019-06-20T02:54:00.132Z,12.00
2019-06-20T02:54:59.797Z,16.00
2019-06-20T02:55:59.822Z,16.00
2019-06-20T02:57:00.286Z,16.00
2019-06-20T02:57:59.851Z,20.00
2019-06-20T02:58:59.860Z,20.00
2019-06-20T02:59:59.872Z,20.00
2019-06-20T03:00:59.889Z,24.00
2019-06-20T03:01:59.950Z,28.00
2019-06-20T03:02:59.925Z,28.00
2019-06-20T03:03:59.982Z,28.00
2019-06-20T03:04:59.948Z,32.00
2019-06-20T03:05:59.966Z,32.00
2019-06-20T03:06:59.982Z,32.00
2019-06-20T03:08:00.499Z,36.00
2019-06-20T03:09:00.264Z,36.00
2019-06-20T03:10:00.043Z,44.00
2019-06-20T03:11:00.052Z,44.00
2019-06-20T03:12:00.106Z,48.00
2019-06-20T03:13:00.144Z,52.00
2019-06-20T03:14:00.090Z,56.00
2019-06-20T03:15:00.155Z,56.00
2019-06-20T03:16:00.122Z,60.00
2019-06-20T03:17:00.273Z,64.00
2019-06-20T03:19:01.114Z,64.00
2019-06-20T03:20:00.418Z,64.00
2019-06-20T03:21:00.861Z,68.00
2019-06-20T03:22:00.268Z,76.00
2019-06-20T03:24:00.292Z,80.00
2019-06-20T03:25:00.565Z,84.00
2019-06-20T03:26:00.321Z,88.00
2019-06-20T03:27:00.297Z,88.00
2019-06-20T03:28:00.420Z,88.00
2019-06-20T03:29:00.326Z,84.00
2019-06-20T03:31:00.362Z,72.00
2019-06-20T03:32:00.374Z,68.00
2019-06-20T03:33:00.393Z,68.00
2019-06-20T03:34:00.400Z,68.00
2019-06-20T03:35:00.445Z,72.00
2019-06-20T03:36:00.458Z,76.00
2019-06-20T03:37:00.449Z,92.00
2019-06-20T03:38:00.465Z,108.00
2019-06-20T03:39:00.539Z,116.00
2019-06-20T03:40:00.542Z,132.00
2019-06-20T03:41:00.648Z,136.00
2019-06-20T03:42:00.533Z,148.00
2019-06-20T03:43:00.561Z,160.00
2019-06-20T03:44:00.553Z,164.00
2019-06-20T03:45:02.488Z,168.00
2019-06-20T03:46:00.621Z,172.00
2019-06-20T03:47:00.754Z,172.00
2019-06-20T03:49:01.507Z,180.00
2019-06-20T03:50:00.812Z,188.00
2019-06-20T03:51:00.662Z,200.00
2019-06-20T03:52:00.737Z,208.00
2019-06-20T03:54:00.739Z,216.00
2019-06-20T03:55:00.901Z,224.00
2019-06-20T03:56:01.540Z,232.00
2019-06-20T03:58:00.882Z,244.00
2019-06-20T03:59:00.789Z,252.00
2019-06-20T04:00:01.039Z,264.00
2019-06-20T04:01:00.856Z,272.00
2019-06-20T04:02:01.034Z,272.00
2019-06-20T04:03:01.626Z,276.00
2019-06-20T04:04:00.869Z,288.00
2019-06-20T04:05:01.252Z,288.00
2019-06-20T04:06:00.922Z,276.00
2019-06-20T04:07:00.919Z,276.00
2019-06-20T04:08:00.928Z,268.00
2019-06-20T04:09:00.952Z,268.00
2019-06-20T04:10:01.176Z,268.00
2019-06-20T04:11:00.979Z,268.00
2019-06-20T04:12:01.043Z,268.00
2019-06-20T04:13:01.003Z,288.00
2019-06-20T04:14:02.009Z,280.00
2019-06-20T04:15:01.037Z,288.00
2019-06-20T04:16:01.070Z,292.00
2019-06-20T04:17:01.437Z,280.00
2019-06-20T04:18:01.169Z,268.00
2019-06-20T04:19:02.033Z,268.00
2019-06-20T04:21:01.126Z,276.00
2019-06-20T04:24:01.887Z,236.00
2019-06-20T04:25:01.395Z,224.00
2019-06-20T04:26:01.926Z,228.00
2019-06-20T04:27:01.229Z,220.00
2019-06-20T04:28:01.443Z,220.00
2019-06-20T04:29:01.368Z,228.00
2019-06-20T04:30:01.414Z,228.00
2019-06-20T04:31:01.357Z,228.00
2019-06-20T04:32:01.376Z,236.00
2019-06-20T04:33:01.507Z,244.00
2019-06-20T04:34:01.359Z,260.00
2019-06-20T04:35:01.350Z,280.00
2019-06-20T04:36:01.578Z,296.00
2019-06-20T04:37:01.403Z,324.00
2019-06-20T04:38:01.413Z,360.00
2019-06-20T04:39:01.591Z,396.00
2019-06-20T04:40:01.873Z,436.00
2019-06-20T04:41:01.437Z,484.00
2019-06-20T04:43:01.526Z,528.00
2019-06-20T04:44:01.574Z,552.00
2019-06-20T04:45:01.500Z,548.00
2019-06-20T04:46:01.508Z,532.00
2019-06-20T04:47:01.574Z,564.00
2019-06-20T04:48:01.546Z,560.00
2019-06-20T04:49:01.558Z,592.00
2019-06-20T04:50:01.607Z,604.00
2019-06-20T04:51:01.594Z,612.00
2019-06-20T04:52:01.658Z,624.00
2019-06-20T04:53:01.670Z,640.00
2019-06-20T04:54:01.645Z,664.00
2019-06-20T04:55:02.211Z,716.00
2019-06-20T04:56:05.408Z,784.00
2019-06-20T04:58:01.752Z,840.00
2019-06-20T04:59:01.844Z,848.00
2019-06-20T05:00:01.775Z,868.00
2019-06-20T05:03:02.222Z,944.00
2019-06-20T05:04:01.794Z,952.00
2019-06-20T05:05:01.810Z,960.00
2019-06-20T05:07:01.864Z,1028.00
2019-06-20T05:08:01.899Z,1072.00
2019-06-20T05:09:02.971Z,1108.00
2019-06-20T05:10:02.090Z,1136.00
2019-06-20T05:11:02.028Z,1128.00
2019-06-20T05:12:02.081Z,1092.00
2019-06-20T05:13:01.939Z,1060.00
2019-06-20T05:14:03.033Z,1004.00
2019-06-20T05:15:01.966Z,996.00
2019-06-20T05:17:02.007Z,892.00
2019-06-20T05:18:02.015Z,888.00
2019-06-20T05:19:03.923Z,848.00
2019-06-20T05:20:02.387Z,832.00
2019-06-20T05:21:02.134Z,836.00
2019-06-20T05:23:02.383Z,840.00
2019-06-20T05:24:03.582Z,844.00
2019-06-20T05:25:02.186Z,804.00
2019-06-20T05:26:03.029Z,828.00
2019-06-20T05:27:03.305Z,848.00
2019-06-20T05:29:05.332Z,912.00
2019-06-20T05:30:02.965Z,904.00
2019-06-20T05:33:02.253Z,900.00
2019-06-20T05:36:02.854Z,1028.00
2019-06-20T05:37:02.354Z,1080.00
2019-06-20T05:38:02.415Z,1144.00
2019-06-20T05:39:02.338Z,1436.00
2019-06-20T05:40:06.160Z,1448.00
2019-06-20T05:42:04.049Z,1480.00
2019-06-20T05:44:02.831Z,1640.00
2019-06-20T05:45:06.994Z,1620.00
2019-06-20T05:46:09.510Z,1560.00
2019-06-20T05:47:12.420Z,1596.00
2019-06-20T05:48:02.476Z,1720.00
2019-06-20T05:49:02.875Z,1864.00
2019-06-20T05:50:03.842Z,2000.00
2019-06-20T05:51:04.699Z,2020.00
2019-06-20T05:52:04.556Z,2112.00
2019-06-20T05:53:02.726Z,1808.00
2019-06-20T05:56:03.555Z,1336.00
2019-06-20T05:58:03.781Z,1376.00
2019-06-20T05:59:03.570Z,1356.00
2019-06-20T06:01:03.179Z,1240.00
2019-06-20T06:02:04.678Z,1208.00
2019-06-20T06:04:03.179Z,1348.00
2019-06-20T06:05:03.805Z,1528.00
2019-06-20T06:06:03.281Z,1652.00
2019-06-20T06:07:05.176Z,1836.00
2019-06-20T06:08:04.242Z,1948.00
2019-06-20T06:09:03.797Z,1984.00
2019-06-20T06:10:05.390Z,1876.00
2019-06-20T06:11:03.293Z,1912.00
2019-06-20T06:12:03.096Z,1964.00
2019-06-20T06:14:05.529Z,2028.00
2019-06-20T06:15:06.417Z,2084.00
2019-06-20T06:16:03.099Z,2104.00
2019-06-20T06:17:04.783Z,2136.00
2019-06-20T06:18:03.965Z,2132.00
2019-06-20T06:19:03.104Z,2096.00
2019-06-20T06:20:03.563Z,2092.00
2019-06-20T06:21:03.181Z,2052.00
2019-06-20T06:22:03.201Z,1988.00
2019-06-20T06:23:04.120Z,1984.00
2019-06-20T06:24:03.604Z,1940.00
2019-06-20T06:25:05.005Z,1840.00
2019-06-20T06:26:03.879Z,1744.00
2019-06-20T06:27:03.799Z,1604.00
2019-06-20T06:28:04.193Z,1424.00
2019-06-20T06:29:04.288Z,1484.00
2019-06-20T06:30:06.306Z,1752.00
2019-06-20T06:32:03.952Z,1548.00
2019-06-20T06:34:04.215Z,1744.00
2019-06-20T06:35:05.727Z,1968.00
2019-06-20T06:37:03.267Z,2092.00
2019-06-20T06:38:03.256Z,2028.00
2019-06-20T06:39:03.760Z,1980.00
2019-06-20T06:40:06.247Z,1860.00
2019-06-20T06:41:04.129Z,1768.00
2019-06-20T06:42:04.093Z,1740.00
2019-06-20T06:43:05.378Z,1828.00
2019-06-20T06:44:04.483Z,1984.00
2019-06-20T06:45:06.059Z,2172.00
2019-06-20T06:46:04.055Z,2500.00
2019-06-20T06:47:03.830Z,2892.00
2019-06-20T06:48:04.329Z,3068.00
2019-06-20T06:49:03.795Z,2996.00
2019-06-20T06:50:05.550Z,3004.00
2019-06-20T06:51:04.935Z,3028.00
2019-06-20T06:52:04.664Z,2708.00
2019-06-20T06:53:04.830Z,2152.00
2019-06-20T06:54:04.287Z,1768.00
2019-06-20T06:55:05.168Z,1440.00
2019-06-20T06:56:05.294Z,1292.00
2019-06-20T06:57:05.260Z,1184.00
2019-06-20T06:58:04.494Z,1040.00
2019-06-20T06:59:03.616Z,976.00
2019-06-20T07:00:04.089Z,1016.00
2019-06-20T07:01:10.208Z,1036.00
2019-06-20T07:02:04.337Z,1084.00
2019-06-20T07:03:04.848Z,1120.00
2019-06-20T07:04:05.561Z,1216.00
2019-06-20T07:06:06.911Z,1564.00
2019-06-20T07:07:05.125Z,1660.00
2019-06-20T07:08:08.213Z,1664.00
2019-06-20T07:09:08.235Z,1740.00
2019-06-20T07:11:08.117Z,2040.00
2019-06-20T07:12:07.243Z,2268.00
2019-06-20T07:16:03.844Z,2740.00
2019-06-20T07:17:03.864Z,2756.00
2019-06-20T07:18:03.879Z,2640.00
2019-06-20T07:20:03.896Z,3088.00
2019-06-20T07:21:03.978Z,2400.00
2019-06-20T07:22:07.401Z,2428.00
2019-06-20T07:23:05.218Z,2644.00
2019-06-20T07:24:03.967Z,2828.00
2019-06-20T07:25:03.967Z,3048.00
2019-06-20T07:26:04.825Z,3016.00
2019-06-20T07:27:04.645Z,2832.00
2019-06-20T07:28:04.808Z,2516.00
2019-06-20T07:29:04.054Z,2292.00
2019-06-20T07:30:04.042Z,2136.00
2019-06-20T07:31:04.275Z,2036.00
2019-06-20T07:32:04.242Z,1868.00
2019-06-20T07:33:04.298Z,1688.00
2019-06-20T07:34:08.223Z,1512.00
2019-06-20T07:35:05.973Z,1368.00
2019-06-20T07:36:04.541Z,1296.00
2019-06-20T07:37:04.576Z,1340.00
2019-06-20T07:38:04.236Z,1548.00
2019-06-20T07:42:04.372Z,3428.00
2019-06-20T07:43:04.257Z,3660.00
2019-06-20T07:44:04.264Z,3348.00
2019-06-20T07:45:04.290Z,3132.00
2019-06-20T07:46:05.995Z,3060.00
2019-06-20T07:47:17.189Z,3080.00
2019-06-20T07:50:18.277Z,3144.00
2019-06-20T07:51:09.053Z,3024.00
2019-06-20T07:52:08.374Z,2868.00
2019-06-20T07:53:10.077Z,2768.00
2019-06-20T07:54:09.430Z,2700.00
2019-06-20T07:55:04.480Z,2684.00
2019-06-20T07:56:11.842Z,2700.00
2019-06-20T07:57:09.284Z,2760.00
2019-06-20T07:59:04.503Z,2528.00
2019-06-20T08:00:04.528Z,2380.00
2019-06-20T08:01:04.557Z,2324.00
2019-06-20T08:02:04.572Z,2248.00
2019-06-20T08:03:04.578Z,2140.00
2019-06-20T08:04:04.596Z,2024.00
2019-06-20T08:05:04.586Z,1932.00
2019-06-20T08:06:04.737Z,1964.00
2019-06-20T08:07:04.731Z,2180.00
2019-06-20T08:09:05.122Z,2620.00
2019-06-20T08:10:05.180Z,2588.00
2019-06-20T08:11:05.148Z,2484.00
2019-06-20T08:12:04.719Z,2356.00
2019-06-20T08:13:04.715Z,2168.00
2019-06-20T08:14:05.679Z,2008.00
2019-06-20T08:15:14.468Z,1996.00
2019-06-20T08:16:04.792Z,2044.00
2019-06-20T08:17:04.860Z,1948.00
2019-06-20T08:18:04.806Z,1632.00
2019-06-20T08:19:04.831Z,1264.00
2019-06-20T08:20:04.853Z,1020.00
2019-06-20T08:21:04.914Z,944.00
2019-06-20T08:22:04.856Z,920.00
2019-06-20T08:23:04.900Z,848.00
2019-06-20T08:24:04.890Z,764.00
2019-06-20T08:25:05.382Z,692.00
2019-06-20T08:26:04.918Z,680.00
2019-06-20T08:27:05.031Z,700.00
2019-06-20T08:28:04.960Z,756.00
2019-06-20T08:29:18.583Z,928.00
2019-06-20T08:30:05.225Z,1172.00
2019-06-20T08:31:04.996Z,1432.00
2019-06-20T08:32:05.011Z,1720.00
2019-06-20T08:33:11.737Z,2008.00
2019-06-20T08:34:05.044Z,2256.00
2019-06-20T08:35:06.433Z,2420.00
2019-06-20T08:36:06.552Z,2504.00
2019-06-20T08:37:06.386Z,2500.00
2019-06-20T08:38:05.686Z,2440.00
2019-06-20T08:39:06.489Z,2392.00
2019-06-20T08:40:06.490Z,2388.00
2019-06-20T08:41:06.398Z,2492.00
2019-06-20T08:42:06.370Z,3396.00
2019-06-20T08:43:06.268Z,3092.00
2019-06-20T08:44:06.140Z,2956.00
2019-06-20T08:45:06.109Z,4360.00
2019-06-20T08:47:05.947Z,4656.00
2019-06-20T08:48:05.267Z,4680.00
2019-06-20T08:49:05.779Z,4936.00
2019-06-20T08:50:06.085Z,5016.00
2019-06-20T08:51:06.475Z,4968.00
2019-06-20T08:52:05.603Z,4828.00
2019-06-20T08:53:05.884Z,4984.00
2019-06-20T08:54:05.507Z,4988.00
2019-06-20T08:55:05.769Z,4304.00
2019-06-20T08:56:05.570Z,4568.00
2019-06-20T08:57:05.864Z,3896.00
2019-06-20T08:58:05.723Z,3636.00
2019-06-20T08:59:05.455Z,3284.00
2019-06-20T09:03:05.495Z,6068.00
2019-06-20T09:04:05.511Z,5860.00
2019-06-20T09:05:05.534Z,5328.00
2019-06-20T09:06:05.666Z,6600.00
2019-06-20T09:07:05.578Z,5012.00
2019-06-20T09:08:05.572Z,4704.00
2019-06-20T09:09:05.606Z,6028.00
2019-06-20T09:10:05.756Z,5092.00
2019-06-20T09:11:05.634Z,5300.00
2019-06-20T09:12:06.454Z,5508.00
2019-06-20T09:13:05.653Z,7172.00
2019-06-20T09:14:06.155Z,5352.00
2019-06-20T09:15:06.689Z,4792.00
2019-06-20T09:16:05.833Z,4480.00
2019-06-20T09:17:06.674Z,4896.00
2019-06-20T09:21:05.897Z,3420.00
2019-06-20T09:22:06.711Z,3492.00
2019-06-20T09:23:06.643Z,3804.00
2019-06-20T09:24:06.873Z,4004.00
2019-06-20T09:25:06.011Z,4156.00
2019-06-20T09:26:05.870Z,4312.00
2019-06-20T09:27:05.881Z,4352.00
2019-06-20T09:28:05.893Z,4384.00
2019-06-20T09:29:05.917Z,4392.00
2019-06-20T09:30:05.940Z,4408.00
2019-06-20T09:31:05.984Z,4732.00
2019-06-20T09:32:05.957Z,4988.00
2019-06-20T09:33:06.845Z,4688.00
2019-06-20T09:34:06.069Z,4380.00
2019-06-20T09:35:06.109Z,4604.00
2019-06-20T09:36:06.106Z,3944.00
2019-06-20T09:37:06.038Z,4736.00
2019-06-20T09:38:06.318Z,3848.00
2019-06-20T09:39:06.626Z,5424.00
2019-06-20T09:40:06.091Z,4280.00
2019-06-20T09:41:06.127Z,4008.00
2019-06-20T09:42:06.146Z,3892.00
2019-06-20T09:43:06.182Z,3836.00
2019-06-20T09:44:06.183Z,3832.00
2019-06-20T09:45:06.288Z,3848.00
2019-06-20T09:46:06.231Z,4056.00
2019-06-20T09:47:06.327Z,4608.00
2019-06-20T09:50:07.082Z,5344.00
2019-06-20T09:51:06.269Z,5080.00
2019-06-20T09:52:06.641Z,4588.00
2019-06-20T09:53:06.798Z,4088.00
2019-06-20T09:54:06.445Z,3420.00
2019-06-20T09:55:06.592Z,3256.00
2019-06-20T09:56:06.767Z,3448.00
2019-06-20T09:57:06.379Z,3624.00
2019-06-20T09:58:06.416Z,3464.00
2019-06-20T09:59:06.707Z,3512.00
2019-06-20T10:00:10.414Z,3500.00
2019-06-20T10:01:06.866Z,3608.00
2019-06-20T10:02:06.470Z,5428.00
2019-06-20T10:03:06.476Z,5496.00
2019-06-20T10:04:06.484Z,5616.00
2019-06-20T10:05:06.510Z,4152.00
2019-06-20T10:06:13.922Z,3596.00
2019-06-20T10:07:06.539Z,3632.00
2019-06-20T10:08:06.548Z,3764.00
2019-06-20T10:09:06.573Z,3872.00
2019-06-20T10:10:06.583Z,3868.00
2019-06-20T10:11:06.595Z,4000.00
2019-06-20T10:12:06.613Z,4096.00
2019-06-20T10:13:06.635Z,4160.00
2019-06-20T10:14:06.689Z,4272.00
2019-06-20T10:15:06.677Z,4384.00
2019-06-20T10:16:06.683Z,4432.00
2019-06-20T10:17:06.702Z,4460.00
2019-06-20T10:18:06.706Z,4496.00
2019-06-20T10:19:06.733Z,4504.00
2019-06-20T10:20:06.748Z,4488.00
2019-06-20T10:21:06.772Z,4544.00
2019-06-20T10:22:06.786Z,4648.00
2019-06-20T10:23:06.798Z,4784.00
2019-06-20T10:24:06.865Z,4884.00
2019-06-20T10:25:06.840Z,4888.00
2019-06-20T10:26:07.194Z,4764.00
2019-06-20T10:27:06.877Z,4560.00
2019-06-20T10:28:06.912Z,4276.00
2019-06-20T10:29:06.891Z,3920.00
2019-06-20T10:30:14.366Z,3508.00
2019-06-20T10:31:06.946Z,3188.00
2019-06-20T10:32:06.943Z,3064.00
2019-06-20T10:33:06.957Z,3144.00
2019-06-20T10:34:06.986Z,3504.00
2019-06-20T10:35:06.999Z,5448.00
2019-06-20T10:36:07.045Z,5520.00
2019-06-20T10:37:07.725Z,5612.00
2019-06-20T10:38:07.078Z,5616.00
2019-06-20T10:39:07.062Z,4372.00
2019-06-20T10:40:07.124Z,4496.00
2019-06-20T10:41:07.090Z,4476.00
2019-06-20T10:42:07.120Z,4852.00
2019-06-20T10:43:07.127Z,6452.00
2019-06-20T10:44:07.144Z,6056.00
2019-06-20T10:45:07.221Z,4388.00
2019-06-20T10:46:07.168Z,4108.00
2019-06-20T10:47:07.183Z,3824.00
2019-06-20T10:48:07.210Z,4328.00
2019-06-20T10:49:07.308Z,4208.00
2019-06-20T10:50:07.249Z,4952.00
2019-06-20T10:51:07.262Z,4948.00
2019-06-20T10:52:07.467Z,5024.00
2019-06-20T10:53:07.458Z,5268.00
2019-06-20T10:54:07.296Z,5500.00
2019-06-20T10:55:07.345Z,5568.00
2019-06-20T10:56:07.336Z,5584.00
2019-06-20T10:57:07.370Z,5648.00
2019-06-20T10:58:07.424Z,4588.00
2019-06-20T10:59:07.394Z,4288.00
2019-06-20T11:00:08.231Z,4340.00
2019-06-20T11:01:07.472Z,5000.00
2019-06-20T11:02:07.530Z,6236.00
2019-06-20T11:04:07.489Z,6460.00
2019-06-20T11:05:07.515Z,6528.00
2019-06-20T11:06:07.514Z,6404.00
2019-06-20T11:07:07.617Z,6336.00
2019-06-20T11:08:07.535Z,6540.00
2019-06-20T11:09:07.589Z,6712.00
2019-06-20T11:10:07.615Z,6956.00
2019-06-20T11:11:07.597Z,7068.00
2019-06-20T11:12:07.637Z,5600.00
2019-06-20T11:13:07.617Z,6592.00
2019-06-20T11:14:07.635Z,6232.00
2019-06-20T11:15:07.759Z,5636.00
2019-06-20T11:16:07.782Z,4096.00
2019-06-20T11:17:07.915Z,4080.00
2019-06-20T11:18:08.303Z,4436.00
2019-06-20T11:19:07.718Z,6112.00
2019-06-20T11:20:07.741Z,5596.00
2019-06-20T11:21:07.801Z,3956.00
2019-06-20T11:22:07.852Z,5032.00
2019-06-20T11:23:07.789Z,5948.00
2019-06-20T11:24:07.821Z,5728.00
2019-06-20T11:25:07.886Z,5184.00
2019-06-20T11:26:07.845Z,5908.00
2019-06-20T11:27:07.947Z,4428.00
2019-06-20T11:29:08.992Z,6332.00
2019-06-20T11:30:10.947Z,6644.00
2019-06-20T11:31:07.957Z,6784.00
2019-06-20T11:32:07.953Z,5660.00
2019-06-20T11:33:07.984Z,4932.00
2019-06-20T11:34:08.056Z,6664.00
2019-06-20T11:35:08.010Z,4100.00
2019-06-20T11:36:08.054Z,4072.00
2019-06-20T11:37:08.276Z,3960.00
2019-06-20T11:38:08.108Z,4076.00
2019-06-20T11:39:08.071Z,4344.00
2019-06-20T11:40:08.158Z,4364.00
2019-06-20T11:41:08.130Z,4312.00
2019-06-20T11:42:08.251Z,4452.00
2019-06-20T11:43:08.216Z,4052.00
2019-06-20T11:44:08.321Z,5288.00
2019-06-20T11:45:08.216Z,3524.00
2019-06-20T11:46:08.196Z,3548.00
2019-06-20T11:47:08.218Z,3672.00
2019-06-20T11:48:08.554Z,3956.00
2019-06-20T11:49:08.247Z,4364.00
2019-06-20T11:51:08.341Z,5236.00
2019-06-20T11:53:08.340Z,6140.00
2019-06-20T11:54:08.470Z,6336.00
2019-06-20T11:55:08.612Z,6076.00
2019-06-20T11:56:08.441Z,6084.00
2019-06-20T11:57:08.392Z,5580.00
2019-06-20T11:58:09.117Z,5308.00
2019-06-20T11:59:08.439Z,5184.00
2019-06-20T12:00:08.846Z,5184.00
2019-06-20T12:01:08.460Z,5280.00
2019-06-20T12:02:08.746Z,5436.00
2019-06-20T12:03:08.506Z,5792.00
2019-06-20T12:04:09.481Z,8044.00
2019-06-20T12:05:08.952Z,5920.00
2019-06-20T12:06:08.557Z,5572.00
2019-06-20T12:07:08.579Z,7428.00
2019-06-20T12:08:08.620Z,4800.00
2019-06-20T12:09:08.611Z,4564.00
2019-06-20T12:10:09.620Z,4672.00
2019-06-20T12:11:08.647Z,4992.00
2019-06-20T12:12:10.095Z,5432.00
2019-06-20T12:13:08.677Z,6036.00
2019-06-20T12:14:08.803Z,6244.00
2019-06-20T12:15:08.710Z,8984.00
2019-06-20T12:16:08.716Z,9180.00
2019-06-20T12:17:08.726Z,8968.00
2019-06-20T12:18:08.752Z,8636.00
2019-06-20T12:19:08.763Z,8148.00
2019-06-20T12:20:09.830Z,6084.00
2019-06-20T12:21:08.802Z,5876.00
2019-06-20T12:22:08.815Z,4544.00
2019-06-20T12:23:08.838Z,4544.00
2019-06-20T12:24:08.908Z,4708.00
2019-06-20T12:25:08.870Z,4560.00
2019-06-20T12:26:08.880Z,4524.00
2019-06-20T12:27:08.954Z,4452.00
2019-06-20T12:28:09.101Z,4488.00
2019-06-20T12:29:08.939Z,4348.00
2019-06-20T12:30:08.974Z,4356.00
2019-06-20T12:31:18.905Z,4600.00
2019-06-20T12:32:10.050Z,5160.00
2019-06-20T12:33:09.034Z,5892.00
2019-06-20T12:34:09.026Z,6840.00
2019-06-20T12:35:09.043Z,8388.00
2019-06-20T12:36:09.064Z,7564.00
2019-06-20T12:37:09.481Z,7468.00
2019-06-20T12:38:09.707Z,7428.00
2019-06-20T12:39:09.176Z,8384.00
2019-06-20T12:40:09.167Z,11136.00
2019-06-20T12:42:09.164Z,8412.00
2019-06-20T12:43:09.296Z,8168.00
2019-06-20T12:44:09.256Z,12120.00
2019-06-20T12:45:09.666Z,6472.00
2019-06-20T12:46:09.283Z,5932.00
2019-06-20T12:47:09.255Z,5700.00
2019-06-20T12:48:09.283Z,5200.00
2019-06-20T12:49:09.286Z,5008.00
2019-06-20T12:50:09.331Z,6096.00
2019-06-20T12:51:09.325Z,3496.00
2019-06-20T12:52:09.339Z,3012.00
2019-06-20T12:53:09.367Z,2496.00
2019-06-20T12:55:09.400Z,2472.00
2019-06-20T12:56:09.485Z,2592.00
2019-06-20T12:57:09.430Z,2784.00
2019-06-20T12:58:09.596Z,3212.00
2019-06-20T13:00:09.817Z,4412.00
2019-06-20T13:01:09.515Z,5068.00
2019-06-20T13:02:09.524Z,4392.00
2019-06-20T13:03:09.668Z,4660.00
2019-06-20T13:04:09.572Z,5140.00
2019-06-20T13:05:09.579Z,5808.00
2019-06-20T13:06:09.608Z,6116.00
2019-06-20T13:07:09.699Z,6348.00
2019-06-20T13:08:09.664Z,6648.00
2019-06-20T13:09:09.640Z,6932.00
2019-06-20T13:10:09.662Z,7968.00
2019-06-20T13:11:09.771Z,8596.00
2019-06-20T13:12:09.757Z,8764.00
2019-06-20T13:13:09.972Z,12056.00
2019-06-20T13:14:10.235Z,6472.00
2019-06-20T13:15:09.792Z,5004.00
2019-06-20T13:16:09.763Z,3244.00
2019-06-20T13:17:09.916Z,2608.00
2019-06-20T13:18:09.903Z,2340.00
2019-06-20T13:19:09.876Z,2164.00
2019-06-20T13:20:10.045Z,2096.00
2019-06-20T13:21:09.916Z,2160.00
2019-06-20T13:23:09.899Z,2432.00
2019-06-20T13:24:09.915Z,2472.00
2019-06-20T13:25:09.945Z,2468.00
2019-06-20T13:26:09.945Z,2504.00
2019-06-20T13:27:10.018Z,2544.00
2019-06-20T13:28:09.987Z,2640.00
2019-06-20T13:29:09.991Z,2736.00
2019-06-20T13:30:10.039Z,2828.00
2019-06-20T13:31:10.046Z,2924.00
2019-06-20T13:32:10.345Z,2972.00
2019-06-20T13:34:10.113Z,2992.00
2019-06-20T13:35:10.123Z,2972.00
2019-06-20T13:36:10.123Z,2908.00
2019-06-20T13:37:10.177Z,2864.00
2019-06-20T13:38:10.157Z,2792.00
2019-06-20T13:39:10.165Z,2784.00
2019-06-20T13:40:10.189Z,2876.00